OMAAOMSJ

Guest
Details From OMAA - ABU DHABI INTL
To OMSJ - SHARJAH INTL
Flight Number -
Tags generated
Created
Modified
Stats Distance 72 nm / 133 km
Max Altitude 6,800 ft / 2,073 m
Waypoints 3
Social Downloads 3
Likes 0
Share VATSIM

Download

Looking for another format? Having issues loading an existing format? Contact us
Advertisement - Login to hide

Notes

Basic altitude profile: - Ascent Rate: 2500ft/min - Ascent Speed: 250kts - Cruise Altitude: 35000ft - Cruise Speed: 420kts - Descent Rate: 1500ft/min - Descent Speed: 250kts Options: - Use NATs: yes - Use PACOTS: yes - Use low airways: yes - Use high airways: yes

Route

OMAA GONDI OMSJ

ID Type Via Altitude Latitude Longitude Leg Dist Tot Dist Heading (true) Name
O OMAA APT - 0 ft / 0 m 24.43305˚ 54.65118˚ - 0 nm - ABU DHABI INTL
GONDI FIX - 6,800 ft / 2,073 m 24.66389˚ 54.89056˚ 19 nm 19 nm 43° / 43° -
O OMSJ APT - 0 ft / 0 m 25.32859˚ 55.51722˚ 52 nm 71 nm 40° / 41° SHARJAH INTL

Altitude Profile

Advertisement - Login to hide

OMAA

Details ICAO OMAA (AUH)
Name ABU DHABI INTL
Region United Arab Emirates
Timezone Asia/Dubai (UTC+4.0)
Stats Elevation 88 ft / 27 m (AMSL)
Location 24.433049° 54.651182°
Runways 1
Magnetic Variation 2.000° E

METAR

OMAA 261800Z VRB02KT CAVOK 34/18 Q1005 WS ALL RWY BECMG 06005KT

Decode

TAF

TAF OMAA 261700Z 2618/2800 03007KT 8000 NSC BECMG 2700/2702 17010KT BECMG 2709/2711 34013KT BECMG 2718/2720 08005KT

Decode

Departure Runways

ID Width Length Bearing (true) Bearing (mag) Surface Threshold Offset Overrun Length
13 148 ft / 45 m 13,461 ft / 4,103 m 127.94° 125.94° Asphalt 0 ft / 0 m 180 ft / 55 m
31 148 ft / 45 m 13,461 ft / 4,103 m 307.95° 305.95° Asphalt 0 ft / 0 m 196 ft / 60 m

OMSJ

Details ICAO OMSJ (SHJ)
Name SHARJAH INTL
Region United Arab Emirates
Timezone Asia/Dubai (UTC+4.0)
Stats Elevation 111 ft / 34 m (AMSL)
Location 25.328587° 55.517218°
Runways 1
Magnetic Variation 2.066° E

METAR

OMSJ 261800Z 05003KT CAVOK 31/22 Q1006

Decode

TAF

TAF OMSJ 261705Z 2618/2800 05005KT CAVOK BECMG 2702/2704 16010KT BECMG 2708/2710 31012KT BECMG 2715/2717 12005KT

Decode

Destination Runways

ID Width Length Bearing (true) Bearing (mag) Surface Threshold Offset Overrun Length
12 148 ft / 45 m 13,266 ft / 4,043 m 122.45° 120.38° Asphalt 689 ft / 210 m 488 ft / 149 m
30 148 ft / 45 m 13,266 ft / 4,043 m 302.47° 300.40° Asphalt 984 ft / 300 m 488 ft / 149 m

Approach Navaids

Runway Type Ident Frequency Range Bearing (true) Bearing (mag) Slope Elevation
30 Localiser ISJ 109.70 MHz 18 nm / 33 km 302.45° 300.38° - 111 ft / 34 m (AMSL)
30 Glidescope ISJ 109.70 MHz 10 nm / 19 km 302.46° 300.39° 3.00° 111 ft / 34 m (AMSL)